createdAt,value
2022-10-05T00:00:55.452Z,5.90
2022-10-05T00:03:00.212Z,7.17
2022-10-05T00:05:02.004Z,7.30
2022-10-05T00:07:09.690Z,6.83
2022-10-05T00:09:16.123Z,6.80
2022-10-05T00:11:17.771Z,7.77
2022-10-05T00:13:21.465Z,7.23
2022-10-05T00:15:23.286Z,7.50
2022-10-05T00:17:27.218Z,7.63
2022-10-05T00:19:32.262Z,7.90
2022-10-05T00:21:33.880Z,8.57
2022-10-05T00:23:36.684Z,7.27
2022-10-05T00:25:39.154Z,8.40
2022-10-05T00:27:41.395Z,8.60
2022-10-05T00:29:43.236Z,8.30
2022-10-05T00:31:44.878Z,6.80
2022-10-05T00:33:47.223Z,6.73
2022-10-05T00:35:49.408Z,7.47
2022-10-05T00:37:53.353Z,6.80
2022-10-05T00:39:56.636Z,6.63
2022-10-05T00:42:24.936Z,6.80
2022-10-05T00:44:37.267Z,8.17
2022-10-05T00:46:53.663Z,6.60
2022-10-05T00:49:03.633Z,7.37
2022-10-05T00:51:20.789Z,7.40
2022-10-05T00:53:34.260Z,7.00
2022-10-05T00:55:47.574Z,7.17
2022-10-05T00:58:01.483Z,6.93
2022-10-05T01:00:07.871Z,7.83
2022-10-05T01:02:15.257Z,7.70
2022-10-05T01:04:21.848Z,7.00
2022-10-05T01:06:35.863Z,7.67
2022-10-05T01:08:47.741Z,7.50
2022-10-05T01:10:59.330Z,7.70
2022-10-05T01:13:09.515Z,6.63
2022-10-05T01:15:16.077Z,7.27
2022-10-05T01:17:25.220Z,7.37
2022-10-05T01:26:38.285Z,6.63
2022-10-05T01:34:44.905Z,6.73
2022-10-05T01:43:11.789Z,6.83
2022-10-05T01:45:23.317Z,6.90
2022-10-05T01:47:33.269Z,7.13
2022-10-05T01:49:37.579Z,7.80
2022-10-05T01:51:47.952Z,7.53
2022-10-05T01:54:03.258Z,7.57
2022-10-05T01:56:14.981Z,7.23
2022-10-05T01:58:22.878Z,7.30
2022-10-05T02:00:24.716Z,7.33
2022-10-05T02:02:29.133Z,8.70
2022-10-05T02:05:00.804Z,8.77
2022-10-05T02:06:59.738Z,7.53
2022-10-05T02:09:05.917Z,7.70
2022-10-05T02:11:10.609Z,7.97
2022-10-05T02:13:18.401Z,7.67
2022-10-05T02:15:25.582Z,7.73
2022-10-05T02:17:34.111Z,8.80
2022-10-05T02:19:39.092Z,8.77
2022-10-05T02:21:43.683Z,8.60
2022-10-05T02:23:50.799Z,7.43
2022-10-05T02:25:54.279Z,7.87
2022-10-05T02:28:01.326Z,8.50
2022-10-05T02:30:06.421Z,7.67
2022-10-05T02:32:12.091Z,7.50
2022-10-05T02:34:20.952Z,7.27
2022-10-05T02:36:28.878Z,8.03
2022-10-05T02:38:40.617Z,8.20
2022-10-05T02:40:53.643Z,8.97
2022-10-05T02:43:04.392Z,8.27
2022-10-05T02:45:17.420Z,7.73
2022-10-05T02:47:27.445Z,8.23
2022-10-05T02:49:37.752Z,8.00
2022-10-05T02:51:50.279Z,7.90
2022-10-05T02:54:05.827Z,7.60
2022-10-05T02:56:20.314Z,8.13
2022-10-05T02:58:24.921Z,7.10
2022-10-05T03:00:32.215Z,8.73
2022-10-05T03:02:43.262Z,8.67
2022-10-05T03:04:54.272Z,8.80
2022-10-05T03:07:03.868Z,8.20
2022-10-05T03:09:07.484Z,8.70
2022-10-05T03:11:22.135Z,8.80
2022-10-05T03:13:31.037Z,8.90
2022-10-05T03:16:02.406Z,8.33
2022-10-05T03:18:15.631Z,8.10
2022-10-05T03:20:27.980Z,9.10
2022-10-05T03:22:44.818Z,8.30
2022-10-05T03:25:05.097Z,8.27
2022-10-05T03:27:22.368Z,8.70
2022-10-05T03:29:34.981Z,8.70
2022-10-05T03:31:46.312Z,8.50
2022-10-05T03:33:53.976Z,8.60
2022-10-05T03:36:03.888Z,9.00
2022-10-05T03:38:12.969Z,10.47
2022-10-05T03:40:24.735Z,9.37
2022-10-05T03:42:37.896Z,10.77
2022-10-05T03:44:47.746Z,9.50
2022-10-05T03:47:05.563Z,10.20
2022-10-05T03:49:15.066Z,9.73
2022-10-05T03:51:23.835Z,10.70
2022-10-05T03:53:30.147Z,9.63
2022-10-05T03:55:37.144Z,9.90
2022-10-05T03:57:42.521Z,9.47
2022-10-05T03:59:54.447Z,10.63
2022-10-05T04:01:58.919Z,9.67
2022-10-05T04:04:04.215Z,9.60
2022-10-05T04:06:13.433Z,8.80
2022-10-05T04:08:23.050Z,9.67
2022-10-05T04:10:27.658Z,9.40
2022-10-05T04:12:35.449Z,10.63
2022-10-05T04:14:43.500Z,10.60
2022-10-05T04:16:50.102Z,9.07
2022-10-05T04:18:59.231Z,9.23
2022-10-05T04:21:06.951Z,10.70
2022-10-05T04:23:18.362Z,10.37
2022-10-05T04:25:24.833Z,9.00
2022-10-05T04:27:31.943Z,10.97
2022-10-05T04:29:37.989Z,10.63
2022-10-05T04:31:59.312Z,10.00
2022-10-05T04:34:07.843Z,10.63
2022-10-05T04:36:21.639Z,10.60
2022-10-05T04:38:32.090Z,10.40
2022-10-05T04:40:44.217Z,10.80
2022-10-05T04:42:54.587Z,12.13
2022-10-05T04:45:14.983Z,11.73
2022-10-05T04:47:38.614Z,11.87
2022-10-05T04:50:00.688Z,11.20
2022-10-05T04:52:11.335Z,12.07
2022-10-05T04:54:24.302Z,13.63
2022-10-05T04:56:34.202Z,11.87
2022-10-05T04:58:47.602Z,11.93
2022-10-05T05:00:59.709Z,12.10
2022-10-05T05:03:34.523Z,10.73
2022-10-05T05:06:12.173Z,11.70
2022-10-05T05:08:27.053Z,14.10
2022-10-05T05:10:55.288Z,12.40
2022-10-05T05:13:07.769Z,12.50
2022-10-05T05:15:21.866Z,12.73
2022-10-05T05:17:36.203Z,13.90
2022-10-05T05:19:49.393Z,14.40
2022-10-05T05:22:00.241Z,13.80
2022-10-05T05:24:09.094Z,12.50
2022-10-05T05:26:18.805Z,13.43
2022-10-05T05:28:29.586Z,13.30
2022-10-05T05:30:40.700Z,13.33
2022-10-05T05:32:54.138Z,13.50
2022-10-05T05:35:13.625Z,14.00
2022-10-05T05:37:23.760Z,13.60
2022-10-05T05:39:29.163Z,13.63
2022-10-05T05:41:38.355Z,14.23
2022-10-05T05:43:52.092Z,12.67
2022-10-05T05:45:59.562Z,13.90
2022-10-05T05:48:05.435Z,14.23
2022-10-05T05:50:23.670Z,13.30
2022-10-05T05:52:30.336Z,13.37
2022-10-05T05:54:38.611Z,13.90
2022-10-05T05:56:45.080Z,14.10
2022-10-05T05:58:50.841Z,13.73
2022-10-05T06:00:57.347Z,13.73
2022-10-05T06:03:03.888Z,13.03
2022-10-05T06:05:28.683Z,15.50
2022-10-05T06:07:31.236Z,13.27
2022-10-05T06:09:39.242Z,13.97
2022-10-05T06:11:45.558Z,14.00
2022-10-05T06:13:47.581Z,13.90
2022-10-05T06:15:55.974Z,14.63
2022-10-05T06:18:01.439Z,14.10
2022-10-05T06:20:09.700Z,13.33
2022-10-05T06:22:28.614Z,14.30
2022-10-05T06:24:35.492Z,15.20
2022-10-05T06:27:03.999Z,12.97
2022-10-05T06:29:11.635Z,13.27
2022-10-05T06:31:24.072Z,14.17
2022-10-05T06:33:48.108Z,15.70
2022-10-05T06:36:17.962Z,14.40
2022-10-05T06:38:37.762Z,13.60
2022-10-05T06:40:49.363Z,13.70
2022-10-05T06:43:13.961Z,13.73
2022-10-05T06:45:25.916Z,12.60
2022-10-05T06:47:35.795Z,14.07
2022-10-05T06:49:44.937Z,13.20
2022-10-05T06:51:55.969Z,14.33
2022-10-05T06:54:08.911Z,13.80
2022-10-05T06:56:17.555Z,14.03
2022-10-05T06:58:40.978Z,13.53
2022-10-05T07:00:50.405Z,13.33
2022-10-05T07:02:57.697Z,11.87
2022-10-05T07:05:28.676Z,11.60
2022-10-05T07:07:38.457Z,11.73
2022-10-05T07:09:56.294Z,11.10
2022-10-05T07:12:09.726Z,11.77
2022-10-05T07:14:24.110Z,11.30
2022-10-05T07:16:36.419Z,11.30
2022-10-05T07:18:49.031Z,10.50
2022-10-05T07:20:59.106Z,11.33
2022-10-05T07:23:20.133Z,10.80
2022-10-05T07:25:28.031Z,10.80
2022-10-05T07:27:33.929Z,11.60
2022-10-05T07:29:47.840Z,11.23
2022-10-05T07:31:58.415Z,11.40
2022-10-05T07:34:14.152Z,10.80
2022-10-05T07:36:21.015Z,11.47
2022-10-05T07:38:29.570Z,11.60
2022-10-05T07:40:48.093Z,11.70
2022-10-05T07:42:59.604Z,11.60
2022-10-05T07:45:13.351Z,11.20
2022-10-05T07:47:23.790Z,12.73
2022-10-05T07:49:38.532Z,11.50
2022-10-05T07:51:44.989Z,11.27
2022-10-05T07:53:53.005Z,10.83
2022-10-05T07:56:00.336Z,11.60
2022-10-05T07:58:11.429Z,11.20
2022-10-05T08:00:19.146Z,11.27
2022-10-05T08:02:26.648Z,11.17
2022-10-05T08:04:37.027Z,11.70
2022-10-05T08:06:50.629Z,11.53
2022-10-05T08:09:02.045Z,12.10
2022-10-05T08:11:14.178Z,11.97
2022-10-05T08:13:23.865Z,11.50
2022-10-05T08:15:30.091Z,11.00
2022-10-05T08:17:50.273Z,10.70
2022-10-05T08:20:02.412Z,10.73
2022-10-05T08:22:08.600Z,10.40
2022-10-05T08:24:17.971Z,10.93
2022-10-05T08:26:29.148Z,10.50
2022-10-05T08:28:35.677Z,10.67
2022-10-05T08:30:51.664Z,10.80
2022-10-05T08:33:00.427Z,10.47
2022-10-05T08:35:15.029Z,10.03
2022-10-05T08:37:20.830Z,12.37
2022-10-05T08:39:24.748Z,10.93
2022-10-05T08:41:55.997Z,12.00
2022-10-05T08:44:45.359Z,10.10
2022-10-05T08:47:19.301Z,10.10
2022-10-05T08:49:58.391Z,10.30
2022-10-05T08:52:20.713Z,10.57
2022-10-05T08:54:48.110Z,10.90
2022-10-05T08:57:02.137Z,10.40
2022-10-05T08:59:20.469Z,10.70
2022-10-05T09:01:30.423Z,10.30
2022-10-05T09:04:07.343Z,10.97
2022-10-05T09:06:25.754Z,10.23
2022-10-05T09:08:47.828Z,10.20
2022-10-05T09:11:11.246Z,10.90
2022-10-05T09:13:38.479Z,9.83
2022-10-05T09:16:07.388Z,10.70
2022-10-05T09:18:42.235Z,11.03
2022-10-05T09:20:51.843Z,10.33
2022-10-05T09:23:11.078Z,10.70
2022-10-05T09:25:23.186Z,10.10
2022-10-05T09:27:35.958Z,9.30
2022-10-05T09:30:10.085Z,9.70
2022-10-05T09:32:37.237Z,10.33
2022-10-05T09:35:16.870Z,8.70
2022-10-05T09:38:03.778Z,9.30
2022-10-05T09:40:47.247Z,9.47
2022-10-05T09:43:23.792Z,8.83
2022-10-05T09:45:59.489Z,10.50
2022-10-05T09:48:28.332Z,8.80
2022-10-05T09:51:08.369Z,9.40
2022-10-05T09:53:30.930Z,8.77
2022-10-05T09:56:20.068Z,8.67
2022-10-05T09:58:57.484Z,8.90
2022-10-05T10:01:33.179Z,8.40
2022-10-05T10:04:14.751Z,7.50
2022-10-05T10:07:00.531Z,8.87
2022-10-05T10:09:21.251Z,8.40
2022-10-05T10:11:37.484Z,8.07
2022-10-05T10:14:00.554Z,8.10
2022-10-05T10:16:11.273Z,8.23
2022-10-05T10:18:40.514Z,7.90
2022-10-05T10:20:58.444Z,8.13
2022-10-05T10:23:28.405Z,6.40
2022-10-05T10:26:11.839Z,6.20
2022-10-05T10:28:44.546Z,6.23
2022-10-05T10:31:08.615Z,6.90
2022-10-05T10:33:47.986Z,6.30
2022-10-05T10:35:55.432Z,7.47
2022-10-05T10:38:32.516Z,7.50
2022-10-05T10:40:42.718Z,6.70
2022-10-05T10:42:59.983Z,5.63
2022-10-05T10:45:19.220Z,6.07
2022-10-05T10:47:46.894Z,5.73
2022-10-05T10:50:11.378Z,5.40
2022-10-05T10:52:32.447Z,5.93
2022-10-05T10:55:25.081Z,5.13
2022-10-05T10:57:41.131Z,4.97
2022-10-05T11:00:21.854Z,5.17
2022-10-05T11:03:02.059Z,5.07
2022-10-05T11:05:18.989Z,5.50
2022-10-05T11:07:53.153Z,4.97
2022-10-05T11:10:19.664Z,5.23
2022-10-05T11:13:02.324Z,5.40
2022-10-05T11:15:44.000Z,4.73
2022-10-05T11:18:05.025Z,5.03
2022-10-05T11:20:36.751Z,5.50
2022-10-05T11:22:54.434Z,5.30
2022-10-05T11:25:11.852Z,5.67
2022-10-05T11:27:46.970Z,5.30
2022-10-05T11:30:15.843Z,5.83
2022-10-05T11:32:34.824Z,6.13
2022-10-05T11:35:01.480Z,4.60
2022-10-05T11:37:23.083Z,5.30
2022-10-05T11:39:42.863Z,5.27
2022-10-05T11:42:07.883Z,5.20
2022-10-05T11:44:38.732Z,3.87
2022-10-05T11:46:43.530Z,4.27
2022-10-05T11:49:09.902Z,4.50
2022-10-05T11:51:42.492Z,4.87
2022-10-05T11:53:53.780Z,4.03
2022-10-05T11:56:06.641Z,4.10
2022-10-05T11:58:16.142Z,3.97
2022-10-05T12:00:19.756Z,4.30
2022-10-05T12:02:53.677Z,4.00
2022-10-05T12:05:03.238Z,3.93
2022-10-05T12:07:17.012Z,4.03
2022-10-05T12:09:41.847Z,4.20
2022-10-05T12:11:57.845Z,4.00
2022-10-05T12:14:06.604Z,4.30
2022-10-05T12:16:15.987Z,4.40
2022-10-05T12:18:42.819Z,3.97
2022-10-05T12:20:49.025Z,4.50
2022-10-05T12:22:58.999Z,4.63
2022-10-05T12:25:06.791Z,4.43
2022-10-05T12:27:15.301Z,4.10
2022-10-05T12:29:24.892Z,4.00
2022-10-05T12:31:39.730Z,4.33
2022-10-05T12:33:50.379Z,4.13
2022-10-05T12:35:55.762Z,4.00
2022-10-05T12:38:05.375Z,3.90
2022-10-05T12:40:19.733Z,4.80
2022-10-05T12:42:29.623Z,4.63
2022-10-05T12:44:57.054Z,4.73
2022-10-05T12:47:09.602Z,3.97
2022-10-05T12:49:24.040Z,4.40
2022-10-05T12:51:35.596Z,4.30
2022-10-05T12:53:48.802Z,3.93
2022-10-05T12:56:02.412Z,5.07
2022-10-05T12:58:19.977Z,4.30
2022-10-05T13:00:23.258Z,4.90
2022-10-05T13:02:35.550Z,4.80
2022-10-05T13:04:46.215Z,5.20
2022-10-05T13:07:05.189Z,4.23
2022-10-05T13:09:13.402Z,4.83
2022-10-05T13:11:20.901Z,5.33
2022-10-05T13:13:34.491Z,4.70
2022-10-05T13:15:47.069Z,5.27
2022-10-05T13:18:01.121Z,4.70
2022-10-05T13:20:13.884Z,4.60
2022-10-05T13:22:30.626Z,4.53
2022-10-05T13:24:43.162Z,4.97
2022-10-05T13:26:49.635Z,5.03
2022-10-05T13:28:58.715Z,4.63
2022-10-05T13:31:06.316Z,4.70
2022-10-05T13:33:17.310Z,4.47
2022-10-05T13:35:29.544Z,4.60
2022-10-05T13:37:43.789Z,4.97
2022-10-05T13:39:58.301Z,4.80
2022-10-05T13:42:08.839Z,4.97
2022-10-05T13:44:22.740Z,4.50
2022-10-05T13:46:35.591Z,4.80
2022-10-05T13:48:50.374Z,4.60
2022-10-05T13:51:06.139Z,5.10
2022-10-05T13:53:19.379Z,4.57
2022-10-05T13:55:43.005Z,5.10
2022-10-05T13:57:56.385Z,5.07
2022-10-05T14:00:00.797Z,4.50
2022-10-05T14:02:08.680Z,4.20
2022-10-05T14:04:16.702Z,4.47
2022-10-05T14:06:27.528Z,4.67
2022-10-05T14:08:32.320Z,4.77
2022-10-05T14:10:38.343Z,4.93
2022-10-05T14:12:45.354Z,4.60
2022-10-05T14:14:50.235Z,4.50
2022-10-05T14:16:54.423Z,4.40
2022-10-05T14:19:11.367Z,4.50
2022-10-05T14:21:19.546Z,4.73
2022-10-05T14:23:26.820Z,5.40
2022-10-05T14:25:29.897Z,5.27
2022-10-05T14:27:35.980Z,5.17
2022-10-05T14:29:38.661Z,4.93
2022-10-05T14:31:49.285Z,4.60
2022-10-05T14:33:50.878Z,4.63
2022-10-05T14:35:55.404Z,4.10
2022-10-05T14:37:59.712Z,5.67
2022-10-05T14:40:25.437Z,4.23
2022-10-05T14:42:29.147Z,4.33
2022-10-05T14:46:52.162Z,4.60
2022-10-05T14:49:12.037Z,4.63
2022-10-05T14:51:25.465Z,5.27
2022-10-05T14:53:38.544Z,4.17
2022-10-05T14:55:50.623Z,5.93
2022-10-05T14:58:04.657Z,5.63
2022-10-05T15:00:12.524Z,4.80
2022-10-05T15:02:31.837Z,5.67
2022-10-05T15:04:41.085Z,5.37
2022-10-05T15:06:48.175Z,4.87
2022-10-05T15:09:18.172Z,4.47
2022-10-05T15:11:31.000Z,6.13
2022-10-05T15:13:37.347Z,4.93
2022-10-05T15:15:47.405Z,4.63
2022-10-05T15:17:55.116Z,4.60
2022-10-05T15:20:02.453Z,6.40
2022-10-05T15:22:23.472Z,4.90
2022-10-05T15:24:31.526Z,4.83
2022-10-05T15:26:48.662Z,4.67
2022-10-05T15:28:56.278Z,5.00
2022-10-05T15:31:03.677Z,5.10
2022-10-05T15:33:14.982Z,5.43
2022-10-05T15:35:42.509Z,5.27
2022-10-05T15:37:50.153Z,5.63
2022-10-05T15:39:54.624Z,5.43
2022-10-05T15:42:00.817Z,5.57
2022-10-05T15:44:15.361Z,5.50
2022-10-05T15:46:24.103Z,5.50
2022-10-05T15:48:33.354Z,5.43
2022-10-05T15:50:42.801Z,5.53
2022-10-05T15:52:50.202Z,4.83
2022-10-05T15:55:25.498Z,4.37
2022-10-05T15:57:38.805Z,4.53
2022-10-05T15:59:51.131Z,5.00
2022-10-05T16:01:58.328Z,4.57
2022-10-05T16:04:11.028Z,4.70
2022-10-05T16:06:23.498Z,4.27
2022-10-05T16:08:46.501Z,4.80
2022-10-05T16:10:48.854Z,4.40
2022-10-05T16:13:13.904Z,4.87
2022-10-05T16:15:25.406Z,4.30
2022-10-05T16:17:44.199Z,4.70
2022-10-05T16:19:56.487Z,4.90
2022-10-05T16:22:05.754Z,4.83
2022-10-05T16:24:19.779Z,4.83
2022-10-05T16:26:32.630Z,5.50
2022-10-05T16:28:42.772Z,5.20
2022-10-05T16:30:56.454Z,5.33
2022-10-05T16:33:08.668Z,4.70
2022-10-05T16:35:24.178Z,5.27
2022-10-05T16:37:36.722Z,5.10
2022-10-05T16:39:49.572Z,5.37
2022-10-05T16:41:59.884Z,5.03
2022-10-05T16:44:10.796Z,4.90
2022-10-05T16:46:22.513Z,5.23
2022-10-05T16:48:28.805Z,4.73
2022-10-05T16:50:38.268Z,5.10
2022-10-05T16:52:44.726Z,5.60
2022-10-05T16:54:52.213Z,4.80
2022-10-05T16:56:57.147Z,5.27
2022-10-05T16:59:14.658Z,4.80
2022-10-05T17:01:27.923Z,6.07
2022-10-05T17:03:50.651Z,4.97
2022-10-05T17:06:10.375Z,5.50
2022-10-05T17:08:43.680Z,5.87
2022-10-05T17:10:55.749Z,5.50
2022-10-05T17:13:04.888Z,5.70
2022-10-05T17:15:23.574Z,5.13
2022-10-05T17:17:40.869Z,5.33
2022-10-05T17:19:58.790Z,5.40
2022-10-05T17:22:07.285Z,5.43
2022-10-05T17:24:27.769Z,5.70
2022-10-05T17:26:43.872Z,6.80
2022-10-05T17:28:59.964Z,5.63
2022-10-05T17:31:15.121Z,6.37
2022-10-05T17:33:23.412Z,6.10
2022-10-05T17:35:50.686Z,5.87
2022-10-05T17:38:16.906Z,5.40
2022-10-05T17:40:35.323Z,5.43
2022-10-05T17:42:48.303Z,5.50
2022-10-05T17:44:54.077Z,5.83
2022-10-05T17:46:58.047Z,6.00
2022-10-05T17:49:18.574Z,6.90
2022-10-05T17:51:53.493Z,5.63
2022-10-05T17:53:56.657Z,5.73
2022-10-05T17:56:04.662Z,6.60
2022-10-05T17:58:43.895Z,5.07
2022-10-05T18:01:04.977Z,6.30
2022-10-05T18:03:48.236Z,7.40
2022-10-05T18:06:29.325Z,6.57
2022-10-05T18:08:38.050Z,5.80
2022-10-05T18:11:06.699Z,6.47
2022-10-05T18:13:33.586Z,6.10
2022-10-05T18:15:45.417Z,6.27
2022-10-05T18:17:50.336Z,6.53
2022-10-05T18:20:13.566Z,6.73
2022-10-05T18:22:28.658Z,5.20
2022-10-05T18:24:59.332Z,5.90
2022-10-05T18:27:16.641Z,6.47
2022-10-05T18:29:31.074Z,5.03
2022-10-05T18:31:41.031Z,3.90
2022-10-05T18:33:55.010Z,3.50
2022-10-05T18:36:05.675Z,3.50
2022-10-05T18:38:19.393Z,3.20
2022-10-05T18:40:28.736Z,3.43
2022-10-05T18:42:39.477Z,3.00
2022-10-05T18:44:46.150Z,3.20
2022-10-05T18:46:56.740Z,2.77
2022-10-05T18:49:09.240Z,3.00
2022-10-05T18:51:21.986Z,2.93
2022-10-05T18:53:34.947Z,2.90
2022-10-05T18:55:43.550Z,2.87
2022-10-05T18:58:13.555Z,2.90
2022-10-05T19:00:18.748Z,3.57
2022-10-05T19:02:26.146Z,3.63
2022-10-05T19:04:37.818Z,4.03
2022-10-05T19:06:51.152Z,3.77
2022-10-05T19:09:03.985Z,4.10
2022-10-05T19:11:17.428Z,4.13
2022-10-05T19:13:34.211Z,4.30
2022-10-05T19:15:45.058Z,4.13
2022-10-05T19:18:02.062Z,3.70
2022-10-05T19:20:16.971Z,3.63
2022-10-05T19:22:32.780Z,3.10
2022-10-05T19:24:55.745Z,3.40
2022-10-05T19:27:06.648Z,3.00
2022-10-05T19:29:23.618Z,2.90
2022-10-05T19:31:33.631Z,2.57
2022-10-05T19:33:55.829Z,3.13
2022-10-05T19:36:11.995Z,2.50
2022-10-05T19:38:24.167Z,2.83
2022-10-05T19:40:33.281Z,2.40
2022-10-05T19:42:51.659Z,2.50
2022-10-05T19:45:08.353Z,2.50
2022-10-05T19:47:18.834Z,2.73
2022-10-05T19:49:57.269Z,2.80
2022-10-05T19:51:59.274Z,2.10
2022-10-05T19:54:02.976Z,2.40
2022-10-05T19:56:17.568Z,3.27
2022-10-05T19:58:21.570Z,2.70
2022-10-05T20:00:26.948Z,3.00
2022-10-05T20:02:28.760Z,4.20
2022-10-05T20:04:35.534Z,3.47
2022-10-05T20:06:37.270Z,4.03
2022-10-05T20:08:40.386Z,3.60
2022-10-05T20:10:41.995Z,3.80
2022-10-05T20:12:50.059Z,3.57
2022-10-05T20:15:08.663Z,3.23
2022-10-05T20:17:27.509Z,3.97
2022-10-05T20:19:36.668Z,4.07
2022-10-05T20:21:44.592Z,3.53
2022-10-05T20:23:46.279Z,3.70
2022-10-05T20:25:48.296Z,3.97
2022-10-05T20:27:51.443Z,3.80
2022-10-05T20:29:52.994Z,3.50
2022-10-05T20:31:55.271Z,4.63
2022-10-05T20:34:02.163Z,4.67
2022-10-05T20:36:04.436Z,4.53
2022-10-05T20:38:06.066Z,5.70
2022-10-05T20:40:08.806Z,4.23
2022-10-05T20:42:11.519Z,4.00
2022-10-05T20:44:13.158Z,4.00
2022-10-05T20:46:14.864Z,4.83
2022-10-05T20:48:16.485Z,4.47
2022-10-05T20:50:19.389Z,4.53
2022-10-05T20:52:21.930Z,4.30
2022-10-05T20:54:23.914Z,4.30
2022-10-05T20:56:26.012Z,4.10
2022-10-05T20:58:27.854Z,4.20
2022-10-05T21:00:33.271Z,4.00
2022-10-05T21:02:35.678Z,4.67
2022-10-05T21:04:41.218Z,3.80
2022-10-05T21:06:45.339Z,4.40
2022-10-05T21:08:47.226Z,4.70
2022-10-05T21:10:48.726Z,6.10
2022-10-05T21:12:50.442Z,5.20
2022-10-05T21:14:55.062Z,4.67
2022-10-05T21:16:56.675Z,4.27
2022-10-05T21:19:00.068Z,4.40
2022-10-05T21:21:02.463Z,5.10
2022-10-05T21:23:05.538Z,4.67
2022-10-05T21:25:07.762Z,4.10
2022-10-05T21:27:09.550Z,6.07
2022-10-05T21:29:12.926Z,6.83
2022-10-05T21:31:15.046Z,6.53
2022-10-05T21:33:16.624Z,5.70
2022-10-05T21:35:18.330Z,4.33
2022-10-05T21:37:19.859Z,4.10
2022-10-05T21:39:22.784Z,4.07
2022-10-05T21:41:26.331Z,3.33
2022-10-05T21:43:28.292Z,3.93
2022-10-05T21:45:30.789Z,3.80
2022-10-05T21:47:32.696Z,3.93
2022-10-05T21:49:35.913Z,4.47
2022-10-05T21:51:38.743Z,4.47
2022-10-05T21:53:45.583Z,4.47
2022-10-05T21:55:50.470Z,4.30
2022-10-05T21:57:52.223Z,4.33
2022-10-05T21:59:54.000Z,4.50
2022-10-05T22:01:55.616Z,4.30
2022-10-05T22:03:57.191Z,3.53
2022-10-05T22:05:59.125Z,4.10
2022-10-05T22:08:00.766Z,3.80
2022-10-05T22:10:02.449Z,4.00
2022-10-05T22:12:05.470Z,3.97
2022-10-05T22:14:06.996Z,6.80
2022-10-05T22:16:09.499Z,3.40
2022-10-05T22:18:17.733Z,4.00
2022-10-05T22:20:19.949Z,4.40
2022-10-05T22:22:21.925Z,3.40
2022-10-05T22:24:23.448Z,4.47
2022-10-05T22:26:25.158Z,4.10
2022-10-05T22:28:28.582Z,4.20
2022-10-05T22:30:30.682Z,4.90
2022-10-05T22:32:32.253Z,4.20
2022-10-05T22:34:33.894Z,4.33
2022-10-05T22:36:36.052Z,4.83
2022-10-05T22:38:40.979Z,4.30
2022-10-05T22:40:42.509Z,4.77
2022-10-05T22:42:44.014Z,4.23
2022-10-05T22:44:46.863Z,4.60
2022-10-05T22:46:48.388Z,4.80
2022-10-05T22:48:49.828Z,4.60
2022-10-05T22:50:51.547Z,4.13
2022-10-05T22:52:53.061Z,4.40
2022-10-05T22:54:54.635Z,4.90
2022-10-05T22:56:56.205Z,4.73
2022-10-05T22:58:57.961Z,4.67
2022-10-05T23:01:06.617Z,4.60
2022-10-05T23:03:08.363Z,5.20
2022-10-05T23:05:11.735Z,4.80
2022-10-05T23:07:13.274Z,5.13
2022-10-05T23:09:14.924Z,4.87
2022-10-05T23:11:18.844Z,4.60
2022-10-05T23:13:20.348Z,4.90
2022-10-05T23:15:21.963Z,4.70
2022-10-05T23:17:24.965Z,4.23
2022-10-05T23:19:26.628Z,4.20
2022-10-05T23:21:29.685Z,4.43
2022-10-05T23:23:31.174Z,5.03
2022-10-05T23:25:35.126Z,4.73
2022-10-05T23:27:37.475Z,4.93
2022-10-05T23:29:39.062Z,5.03
2022-10-05T23:31:40.883Z,5.20
2022-10-05T23:33:43.871Z,5.20
2022-10-05T23:35:45.346Z,4.77
2022-10-05T23:37:50.035Z,4.50
2022-10-05T23:39:51.647Z,4.60
2022-10-05T23:41:53.133Z,4.80
2022-10-05T23:43:54.664Z,4.73
2022-10-05T23:45:56.414Z,4.73
2022-10-05T23:47:58.153Z,4.60
2022-10-05T23:50:01.409Z,5.50
2022-10-05T23:52:02.952Z,4.17
2022-10-05T23:54:04.550Z,4.80
2022-10-05T23:56:06.664Z,5.00
2022-10-05T23:58:08.588Z,4.93
